createdAt,value
2023-02-23T00:01:29.972Z,4.45
2023-02-23T00:04:07.399Z,4.46
2023-02-23T00:06:44.318Z,4.46
2023-02-23T00:12:22.790Z,4.46
2023-02-23T00:14:58.441Z,4.49
2023-02-23T00:18:05.847Z,4.52
2023-02-23T00:20:47.515Z,4.53
2023-02-23T00:23:49.666Z,4.49
2023-02-23T00:26:26.632Z,4.51
2023-02-23T00:32:24.385Z,4.44
2023-02-23T00:35:46.289Z,4.39
2023-02-23T00:39:20.101Z,4.39
2023-02-23T00:41:55.940Z,4.37
2023-02-23T00:44:56.057Z,4.33
2023-02-23T00:47:30.975Z,4.31
2023-02-23T00:50:55.970Z,4.29
2023-02-23T00:53:30.391Z,4.27
2023-02-23T00:56:29.850Z,4.25
2023-02-23T00:59:31.513Z,4.21
2023-02-23T01:02:36.183Z,4.21
2023-02-23T01:05:14.747Z,4.23
2023-02-23T01:07:51.418Z,4.22
2023-02-23T01:11:13.992Z,4.21
2023-02-23T01:14:12.273Z,4.19
2023-02-23T01:16:49.127Z,4.17
2023-02-23T01:19:24.787Z,4.16
2023-02-23T01:21:56.732Z,4.15
2023-02-23T01:24:30.589Z,4.11
2023-02-23T01:27:07.196Z,4.10
2023-02-23T01:30:10.280Z,4.07
2023-02-23T01:32:43.528Z,4.03
2023-02-23T01:35:20.535Z,4.03
2023-02-23T01:37:59.816Z,4.01
2023-02-23T01:40:36.741Z,3.98
2023-02-23T01:43:42.673Z,3.97
2023-02-23T01:46:15.872Z,3.97
2023-02-23T01:48:51.290Z,3.96
2023-02-23T01:51:54.915Z,3.92
2023-02-23T01:55:00.775Z,3.88
2023-02-23T01:57:36.860Z,3.87
2023-02-23T02:00:15.074Z,3.85
2023-02-23T02:03:48.349Z,3.82
2023-02-23T02:06:23.448Z,3.81
2023-02-23T02:09:04.508Z,3.79
2023-02-23T02:11:47.963Z,3.80
2023-02-23T02:14:51.074Z,3.75
2023-02-23T02:17:59.832Z,3.73
2023-02-23T02:25:01.159Z,3.71
2023-02-23T02:28:30.001Z,3.66
2023-02-23T02:32:18.491Z,3.69
2023-02-23T02:35:56.983Z,3.72
2023-02-23T02:38:43.947Z,3.72
2023-02-23T02:41:45.565Z,3.70
2023-02-23T02:44:51.921Z,3.71
2023-02-23T02:47:31.120Z,3.73
2023-02-23T02:53:13.532Z,3.68
2023-02-23T02:58:46.568Z,3.73
2023-02-23T03:09:34.730Z,3.67
2023-02-23T03:12:54.458Z,3.69
2023-02-23T03:16:07.960Z,3.67
2023-02-23T03:19:18.136Z,3.66
2023-02-23T03:22:36.123Z,3.65
2023-02-23T03:25:54.129Z,3.67
2023-02-23T03:29:24.141Z,3.68
2023-02-23T03:32:34.114Z,3.69
2023-02-23T03:35:35.789Z,3.64
2023-02-23T03:39:16.768Z,3.65
2023-02-23T03:42:19.858Z,3.64
2023-02-23T03:45:18.247Z,3.60
2023-02-23T03:48:41.602Z,3.58
2023-02-23T03:51:35.968Z,3.57
2023-02-23T03:55:16.010Z,3.57
2023-02-23T03:58:16.796Z,3.56
2023-02-23T04:01:42.754Z,3.57
2023-02-23T04:08:40.745Z,3.51
2023-02-23T04:12:17.829Z,3.51
2023-02-23T04:15:04.083Z,3.51
2023-02-23T04:17:45.917Z,3.51
2023-02-23T04:20:26.074Z,3.52
2023-02-23T04:23:00.614Z,3.51
2023-02-23T04:25:39.311Z,3.52
2023-02-23T04:28:13.483Z,3.51
2023-02-23T04:30:45.552Z,3.50
2023-02-23T04:33:20.323Z,3.51
2023-02-23T04:36:43.046Z,3.50
2023-02-23T04:39:20.716Z,3.51
2023-02-23T04:41:57.626Z,3.49
2023-02-23T04:44:59.144Z,3.44
2023-02-23T04:47:33.061Z,3.41
2023-02-23T04:50:53.645Z,3.41
2023-02-23T04:53:30.311Z,3.40
2023-02-23T04:56:05.366Z,3.40
2023-02-23T04:58:40.813Z,3.38
2023-02-23T05:01:17.080Z,3.37
2023-02-23T05:04:41.769Z,3.37
2023-02-23T05:07:14.464Z,3.35
2023-02-23T05:09:54.182Z,3.31
2023-02-23T05:13:18.268Z,3.30
2023-02-23T05:15:53.010Z,3.31
2023-02-23T05:18:27.512Z,3.32
2023-02-23T05:21:30.209Z,3.34
2023-02-23T05:24:28.117Z,3.30
2023-02-23T05:27:06.567Z,3.27
2023-02-23T05:29:39.237Z,3.27
2023-02-23T05:32:13.595Z,3.33
2023-02-23T05:34:48.621Z,3.35
2023-02-23T05:37:24.055Z,3.39
2023-02-23T05:40:22.462Z,3.43
2023-02-23T05:42:54.352Z,3.47
2023-02-23T05:45:29.053Z,3.46
2023-02-23T05:48:31.491Z,3.48
2023-02-23T05:51:32.602Z,3.48
2023-02-23T05:54:09.377Z,3.49
2023-02-23T05:57:30.998Z,3.48
2023-02-23T06:00:09.097Z,3.49
2023-02-23T06:03:09.847Z,3.51
2023-02-23T06:05:44.114Z,3.56
2023-02-23T06:09:05.606Z,3.58
2023-02-23T06:11:39.992Z,3.63
2023-02-23T06:14:18.022Z,3.67
2023-02-23T06:17:40.800Z,3.75
2023-02-23T06:20:20.126Z,3.80
2023-02-23T06:22:56.248Z,3.86
2023-02-23T06:25:29.887Z,3.94
2023-02-23T06:28:04.209Z,4.01
2023-02-23T06:30:39.041Z,4.08
2023-02-23T06:33:14.603Z,4.12
2023-02-23T06:35:57.509Z,4.17
2023-02-23T06:38:33.788Z,4.28
2023-02-23T06:41:36.554Z,4.37
2023-02-23T06:44:17.280Z,4.48
2023-02-23T06:46:53.613Z,4.56
2023-02-23T06:52:49.972Z,4.67
2023-02-23T06:55:23.367Z,4.73
2023-02-23T06:57:58.300Z,4.79
2023-02-23T07:00:59.792Z,4.84
2023-02-23T07:03:36.724Z,4.92
2023-02-23T07:06:16.354Z,5.06
2023-02-23T07:08:50.838Z,5.19
2023-02-23T07:11:52.742Z,5.25
2023-02-23T07:14:27.674Z,5.29
2023-02-23T07:17:00.230Z,5.39
2023-02-23T07:19:33.793Z,5.54
2023-02-23T07:22:18.464Z,5.65
2023-02-23T07:28:18.466Z,5.79
2023-02-23T07:31:16.405Z,5.80
2023-02-23T07:33:55.123Z,5.84
2023-02-23T07:36:29.354Z,5.87
2023-02-23T07:39:29.361Z,5.93
2023-02-23T07:42:07.983Z,6.05
2023-02-23T07:44:41.261Z,6.19
2023-02-23T07:47:19.616Z,6.37
2023-02-23T07:49:56.128Z,6.54
2023-02-23T07:53:16.832Z,6.65
2023-02-23T07:55:50.491Z,6.73
2023-02-23T07:58:25.275Z,6.78
2023-02-23T08:01:03.911Z,6.92
2023-02-23T08:04:23.719Z,7.02
2023-02-23T08:07:23.508Z,7.14
2023-02-23T08:09:59.916Z,7.23
2023-02-23T08:12:37.826Z,7.38
2023-02-23T08:15:13.104Z,7.50
2023-02-23T08:18:10.560Z,7.59
2023-02-23T08:20:45.003Z,7.63
2023-02-23T08:23:47.222Z,7.63
2023-02-23T08:26:21.106Z,7.64
2023-02-23T08:29:24.200Z,7.66
2023-02-23T08:31:58.362Z,7.69
2023-02-23T08:34:55.612Z,7.75
2023-02-23T08:37:32.619Z,7.91
2023-02-23T08:40:32.248Z,8.08
2023-02-23T08:43:11.363Z,8.13
2023-02-23T08:45:45.658Z,8.21
2023-02-23T08:48:44.323Z,8.28
2023-02-23T08:51:21.460Z,8.32
2023-02-23T08:53:53.551Z,8.36
2023-02-23T08:56:27.628Z,8.50
2023-02-23T08:59:00.800Z,8.75
2023-02-23T09:01:38.867Z,8.94
2023-02-23T09:04:12.267Z,9.03
2023-02-23T09:06:46.994Z,9.21
2023-02-23T09:09:20.931Z,9.33
2023-02-23T09:11:55.365Z,9.46
2023-02-23T09:14:32.507Z,9.51
2023-02-23T09:17:34.566Z,9.60
2023-02-23T09:20:13.591Z,9.73
2023-02-23T09:22:49.865Z,9.78
2023-02-23T09:25:24.182Z,9.90
2023-02-23T09:27:59.678Z,10.02
2023-02-23T09:30:34.910Z,10.21
2023-02-23T09:33:09.070Z,10.30
2023-02-23T09:35:43.638Z,10.35
2023-02-23T09:38:15.741Z,10.50
2023-02-23T09:40:56.982Z,10.61
2023-02-23T09:43:35.301Z,10.66
2023-02-23T09:46:58.745Z,10.79
2023-02-23T09:50:01.270Z,10.94
2023-02-23T09:52:42.468Z,11.07
2023-02-23T09:59:02.964Z,11.22
2023-02-23T10:02:00.332Z,11.28
2023-02-23T10:04:42.557Z,11.35
2023-02-23T10:10:53.296Z,11.64
2023-02-23T10:13:57.316Z,11.84
2023-02-23T10:16:39.033Z,12.05
2023-02-23T10:19:20.934Z,12.23
2023-02-23T10:22:02.025Z,12.40
2023-02-23T10:24:38.253Z,12.53
2023-02-23T10:33:50.597Z,13.08
2023-02-23T10:36:37.648Z,13.18
2023-02-23T10:39:34.678Z,13.29
2023-02-23T10:42:57.137Z,13.36
2023-02-23T10:45:32.582Z,13.49
2023-02-23T10:48:10.465Z,13.61
2023-02-23T10:50:45.767Z,13.76
2023-02-23T10:53:24.228Z,13.82
2023-02-23T10:56:10.773Z,13.95
2023-02-23T10:58:51.240Z,14.17
2023-02-23T11:02:01.045Z,14.30
2023-02-23T11:04:39.929Z,14.38
2023-02-23T11:07:20.320Z,14.43
2023-02-23T11:09:53.531Z,14.47
2023-02-23T11:12:39.318Z,14.48
2023-02-23T11:15:46.368Z,14.49
2023-02-23T11:18:27.334Z,14.59
2023-02-23T11:24:32.253Z,14.80
2023-02-23T11:30:13.679Z,14.81
2023-02-23T11:33:12.707Z,14.93
2023-02-23T11:36:11.560Z,14.99
2023-02-23T11:38:49.709Z,14.99
2023-02-23T11:42:10.531Z,14.95
2023-02-23T11:44:47.692Z,14.91
2023-02-23T11:47:24.237Z,14.93
2023-02-23T11:49:59.599Z,14.95
2023-02-23T11:52:37.962Z,14.90
2023-02-23T11:55:20.608Z,14.88
2023-02-23T11:58:03.036Z,14.96
2023-02-23T12:00:38.213Z,15.05
2023-02-23T12:03:26.445Z,15.08
2023-02-23T12:06:04.883Z,15.13
2023-02-23T12:09:07.560Z,15.21
2023-02-23T12:15:39.564Z,15.19
2023-02-23T12:18:20.871Z,15.21
2023-02-23T12:21:26.298Z,15.22
2023-02-23T12:24:26.346Z,15.25
2023-02-23T12:27:49.973Z,15.36
2023-02-23T12:36:57.554Z,15.55
2023-02-23T12:39:33.336Z,15.62
2023-02-23T12:42:57.566Z,15.71
2023-02-23T12:49:06.696Z,15.91
2023-02-23T12:51:45.115Z,15.99
2023-02-23T12:54:24.173Z,16.06
2023-02-23T12:57:27.982Z,16.04
2023-02-23T13:00:35.290Z,16.02
2023-02-23T13:03:52.316Z,16.04
2023-02-23T13:06:40.778Z,15.92
2023-02-23T13:09:49.077Z,15.84
2023-02-23T13:12:38.235Z,15.81
2023-02-23T13:15:40.845Z,15.77
2023-02-23T13:21:45.460Z,15.79
2023-02-23T13:24:41.936Z,15.80
2023-02-23T13:27:25.103Z,15.85
2023-02-23T13:30:00.961Z,15.85
2023-02-23T13:32:39.465Z,15.86
2023-02-23T13:35:41.504Z,15.87
2023-02-23T13:38:27.140Z,15.95
2023-02-23T13:41:10.250Z,15.98
2023-02-23T13:47:27.904Z,15.94
2023-02-23T13:50:31.714Z,15.85
2023-02-23T13:53:09.319Z,15.79
2023-02-23T13:55:55.051Z,15.79
2023-02-23T13:59:21.067Z,15.81
2023-02-23T14:01:55.168Z,15.84
2023-02-23T14:04:52.993Z,15.77
2023-02-23T14:07:56.710Z,15.68
2023-02-23T14:10:37.512Z,15.60
2023-02-23T14:13:57.675Z,15.60
2023-02-23T14:16:37.705Z,15.66
2023-02-23T14:19:39.974Z,15.75
2023-02-23T14:22:18.590Z,15.77
2023-02-23T14:25:36.988Z,15.85
2023-02-23T14:32:07.597Z,15.95
2023-02-23T14:35:37.182Z,15.96
2023-02-23T14:38:48.002Z,15.90
2023-02-23T14:41:52.035Z,15.79
2023-02-23T14:44:31.161Z,15.71
2023-02-23T14:47:30.353Z,15.66
2023-02-23T14:50:05.060Z,15.67
2023-02-23T14:52:45.505Z,15.67
2023-02-23T14:55:29.574Z,15.63
2023-02-23T15:02:00.734Z,15.45
2023-02-23T15:04:38.654Z,15.30
2023-02-23T15:08:03.591Z,15.21
2023-02-23T15:10:44.360Z,15.02
2023-02-23T15:13:45.113Z,15.01
2023-02-23T15:16:45.257Z,14.95
2023-02-23T15:19:26.034Z,14.83
2023-02-23T15:22:47.655Z,14.77
2023-02-23T15:25:31.224Z,14.74
2023-02-23T15:28:21.713Z,14.70
2023-02-23T15:30:58.119Z,14.64
2023-02-23T15:34:00.097Z,14.54
2023-02-23T15:37:01.398Z,14.41
2023-02-23T15:40:00.364Z,14.27
2023-02-23T15:43:00.728Z,14.25
2023-02-23T15:46:01.614Z,14.16
2023-02-23T15:48:48.562Z,14.03
2023-02-23T15:51:35.761Z,13.94
2023-02-23T16:01:28.245Z,13.52
2023-02-23T16:04:09.410Z,13.41
2023-02-23T16:07:20.280Z,13.28
2023-02-23T16:09:56.254Z,13.20
2023-02-23T16:16:02.025Z,13.09
2023-02-23T16:18:44.877Z,13.01
2023-02-23T16:21:22.632Z,12.89
2023-02-23T16:23:59.197Z,12.85
2023-02-23T16:26:38.221Z,12.80
2023-02-23T16:29:46.766Z,12.73
2023-02-23T16:32:26.776Z,12.64
2023-02-23T16:35:52.131Z,12.56
2023-02-23T16:38:29.758Z,12.46
2023-02-23T16:41:07.727Z,12.41
2023-02-23T16:43:45.988Z,12.40
2023-02-23T16:46:19.653Z,12.30
2023-02-23T16:49:17.288Z,12.23
2023-02-23T16:51:51.425Z,12.20
2023-02-23T16:54:23.779Z,12.20
2023-02-23T16:56:59.678Z,12.20
2023-02-23T16:59:36.611Z,12.25
2023-02-23T17:02:18.043Z,12.27
2023-02-23T17:04:52.832Z,12.26
2023-02-23T17:07:34.755Z,12.29
2023-02-23T17:10:14.676Z,12.32
2023-02-23T17:13:18.382Z,12.29
2023-02-23T17:15:53.918Z,12.28
2023-02-23T17:19:18.122Z,12.25
2023-02-23T17:22:19.197Z,12.27
2023-02-23T17:24:59.821Z,12.28
2023-02-23T17:28:23.510Z,12.25
2023-02-23T17:30:59.093Z,12.19
2023-02-23T17:33:34.813Z,12.20
2023-02-23T17:36:11.534Z,12.19
2023-02-23T17:38:48.899Z,12.17
2023-02-23T17:41:26.933Z,12.19
2023-02-23T17:53:27.716Z,12.14
2023-02-23T17:56:00.640Z,12.10
2023-02-23T17:58:38.536Z,12.09
2023-02-23T18:01:12.664Z,12.09
2023-02-23T18:03:49.213Z,12.09
2023-02-23T18:06:48.729Z,12.09
2023-02-23T18:09:22.570Z,12.08
2023-02-23T18:12:22.496Z,12.05
2023-02-23T18:15:25.072Z,12.02
2023-02-23T18:18:26.824Z,11.96
2023-02-23T18:21:08.349Z,11.90
2023-02-23T18:23:43.300Z,11.92
2023-02-23T18:26:17.954Z,11.92
2023-02-23T18:28:52.191Z,11.92
2023-02-23T18:32:22.426Z,11.90
2023-02-23T18:35:02.022Z,11.80
2023-02-23T18:37:41.027Z,11.73
2023-02-23T18:40:21.628Z,11.73
2023-02-23T18:43:21.865Z,11.72
2023-02-23T18:52:43.140Z,11.73
2023-02-23T18:56:04.133Z,11.73
2023-02-23T18:58:43.406Z,11.72
2023-02-23T19:01:41.579Z,11.66
2023-02-23T19:07:22.294Z,11.64
2023-02-23T19:10:30.042Z,11.64
2023-02-23T19:13:09.333Z,11.66
2023-02-23T19:15:43.793Z,11.67
2023-02-23T19:18:24.047Z,11.71
2023-02-23T19:21:01.060Z,11.73
2023-02-23T19:23:37.494Z,11.79
2023-02-23T19:27:24.015Z,11.80
2023-02-23T19:30:25.118Z,11.74
2023-02-23T19:33:01.261Z,11.75
2023-02-23T19:35:35.512Z,11.72
2023-02-23T19:38:16.159Z,11.74
2023-02-23T19:40:49.801Z,11.78
2023-02-23T19:43:24.059Z,11.80
2023-02-23T19:49:04.604Z,11.83
2023-02-23T19:51:39.333Z,11.79
2023-02-23T19:54:12.160Z,11.76
2023-02-23T19:57:11.559Z,11.78
2023-02-23T19:59:44.752Z,11.78
2023-02-23T20:02:20.431Z,11.78
2023-02-23T20:05:01.800Z,11.80
2023-02-23T20:07:37.181Z,11.81
2023-02-23T20:10:16.506Z,11.85
2023-02-23T20:13:14.834Z,11.88
2023-02-23T20:19:15.364Z,11.91
2023-02-23T20:21:51.726Z,11.94
2023-02-23T20:24:27.658Z,11.98
2023-02-23T20:27:53.197Z,12.02
2023-02-23T20:30:55.853Z,12.02
2023-02-23T20:33:30.493Z,12.02
2023-02-23T20:39:12.526Z,12.09
2023-02-23T20:41:48.190Z,12.11
2023-02-23T20:44:26.247Z,12.13
2023-02-23T20:47:00.985Z,12.16
2023-02-23T20:49:35.329Z,12.17
2023-02-23T20:52:12.587Z,12.22
2023-02-23T20:58:15.126Z,12.27
2023-02-23T21:00:50.838Z,12.29
2023-02-23T21:04:13.171Z,12.33
2023-02-23T21:07:37.418Z,12.36
2023-02-23T21:11:03.755Z,12.34
2023-02-23T21:13:41.095Z,12.31
2023-02-23T21:16:19.497Z,12.34
2023-02-23T21:19:46.837Z,12.36
2023-02-23T21:22:44.828Z,12.35
2023-02-23T21:25:20.657Z,12.35
2023-02-23T21:27:55.214Z,12.36
2023-02-23T21:30:55.044Z,12.33
2023-02-23T21:33:29.615Z,12.34
2023-02-23T21:36:06.221Z,12.36
2023-02-23T21:38:38.702Z,12.38
2023-02-23T21:41:15.557Z,12.40
2023-02-23T21:43:55.110Z,12.42
2023-02-23T21:46:52.910Z,12.41
2023-02-23T21:49:50.520Z,12.41
2023-02-23T21:55:27.913Z,12.41
2023-02-23T21:58:01.279Z,12.39
2023-02-23T22:00:35.885Z,12.38
2023-02-23T22:03:12.906Z,12.38
2023-02-23T22:05:47.749Z,12.37
2023-02-23T22:08:47.688Z,12.34
2023-02-23T22:11:48.988Z,12.32
2023-02-23T22:14:50.912Z,12.31
2023-02-23T22:18:11.756Z,12.27
2023-02-23T22:21:09.904Z,12.27
2023-02-23T22:23:47.050Z,12.20
2023-02-23T22:26:54.256Z,12.16
2023-02-23T22:29:54.379Z,12.13
2023-02-23T22:32:35.125Z,12.09
2023-02-23T22:35:33.945Z,12.09
2023-02-23T22:38:31.614Z,12.02
2023-02-23T22:41:07.411Z,12.01
2023-02-23T22:44:32.782Z,11.96
2023-02-23T22:47:08.146Z,11.92
2023-02-23T22:53:04.969Z,11.91
2023-02-23T22:55:49.155Z,11.89
2023-02-23T22:58:24.746Z,11.86
2023-02-23T23:01:05.382Z,11.86
2023-02-23T23:03:49.118Z,11.87
2023-02-23T23:06:49.445Z,11.87
2023-02-23T23:09:28.066Z,11.84
2023-02-23T23:12:53.076Z,11.85
2023-02-23T23:18:34.699Z,11.80
2023-02-23T23:21:16.071Z,11.79
2023-02-23T23:23:50.523Z,11.81
2023-02-23T23:26:28.772Z,11.80
2023-02-23T23:29:33.418Z,11.81
2023-02-23T23:32:13.148Z,11.79
2023-02-23T23:34:51.961Z,11.75
2023-02-23T23:37:50.570Z,11.75
2023-02-23T23:40:25.675Z,11.75
2023-02-23T23:43:04.422Z,11.75
2023-02-23T23:49:06.582Z,11.75
2023-02-23T23:52:08.883Z,11.75
2023-02-23T23:54:47.499Z,11.77
2023-02-23T23:57:21.956Z,11.79
2023-02-23T23:59:59.642Z,11.80
